Agana Heights, Guam
Current Conditions -  °F | °C
As of 7:54 PM on Wednesday 22 Oct 2014 (Local Time) from PGUM Reporting Station
Clear Clear  
Wind Chill: 83°   Ceiling: Unl
Heat Index: 90°   Visibility: 10mi
Dew Point: 75°   Wind: 5mph
Humidity: 77%   Direction: 70°ENE
Pressure: 29.83"   Gusts: NA
Location:  13.47°N, 144.74°E
Report Text: PGUM 220954Z 07004KT 10SM CLR 28/24 A2983 RMK AO2 SLP093 T02830239
Loading
Personal Weather Stations






























Interactive Weather Map
Tropical Storm Tracking
New forecast layout! Learn more

10-Day Weather Forecast

Advertisements
Track Severe Weather on mobile